Time;durP1;ratioP1;P1;durP2;ratioP2;P2;SDS_P1;SDS_P2;PMS_P1;PMS_P2;Temp;Humidity;BMP_temperature;BMP_pressure;BME280_temperature;BME280_humidity;BME280_pressure;Samples;Min_cycle;Max_cycle;Signal;HPM_P1;HPM_P2
2021/07/19 00:01:08;;;;;;;10.38;4.32;;;17.50;99.90;;;;;;5132189;28;20035;-85
2021/07/19 00:03:35;;;;;;;15.23;4.30;;;17.50;99.90;;;;;;5131714;28;20032;-85
2021/07/19 00:06:02;;;;;;;12.65;4.25;;;17.50;99.90;;;;;;5132003;28;20039;-85
2021/07/19 00:08:29;;;;;;;18.38;4.65;;;17.40;99.90;;;;;;5131871;28;20046;-84
2021/07/19 00:10:57;;;;;;;14.10;4.40;;;17.40;99.90;;;;;;5148288;28;20038;-85
2021/07/19 00:13:24;;;;;;;11.63;4.00;;;17.40;99.90;;;;;;5132336;28;20498;-85
2021/07/19 00:15:51;;;;;;;13.25;4.22;;;17.40;99.90;;;;;;5148451;28;20047;-85
2021/07/19 00:18:19;;;;;;;11.13;4.05;;;17.40;99.90;;;;;;5148932;28;20044;-84
2021/07/19 00:20:46;;;;;;;13.60;4.18;;;17.40;99.90;;;;;;5131391;28;20114;-85
2021/07/19 00:23:12;;;;;;;14.10;4.57;;;17.40;99.90;;;;;;5131918;28;20040;-85
2021/07/19 00:25:39;;;;;;;14.95;4.50;;;17.30;99.90;;;;;;5148253;28;20035;-85
2021/07/19 00:28:06;;;;;;;15.77;4.00;;;17.30;99.90;;;;;;5131599;28;20062;-85
2021/07/19 00:30:36;;;;;;;13.27;4.35;;;17.30;99.90;;;;;;5131739;28;20035;-85
2021/07/19 00:33:04;;;;;;;16.25;4.53;;;17.30;99.90;;;;;;5132007;28;20039;-86
2021/07/19 00:35:32;;;;;;;12.10;4.53;;;17.30;99.90;;;;;;5131600;28;20036;-85
2021/07/19 00:37:58;;;;;;;13.18;4.38;;;17.30;99.90;;;;;;5148247;28;20372;-86
2021/07/19 00:40:28;;;;;;;15.13;4.72;;;17.30;99.90;;;;;;5131711;28;20085;-86
2021/07/19 00:42:55;;;;;;;13.13;4.57;;;17.30;99.90;;;;;;5149201;28;20061;-85
2021/07/19 00:45:26;;;;;;;16.50;5.10;;;17.30;99.90;;;;;;5131622;28;20496;-87
2021/07/19 00:47:55;;;;;;;13.45;4.82;;;17.20;99.90;;;;;;5148062;28;20043;-85
2021/07/19 00:50:24;;;;;;;11.40;4.65;;;17.30;99.90;;;;;;5131547;28;20035;-85
2021/07/19 00:52:57;;;;;;;10.82;4.68;;;17.30;99.90;;;;;;5131053;28;20039;-85
2021/07/19 00:55:31;;;;;;;13.90;5.07;;;17.30;99.90;;;;;;5148542;28;20480;-85
2021/07/19 00:58:00;;;;;;;16.52;5.30;;;17.30;99.90;;;;;;5147839;28;20055;-85
2021/07/19 01:00:28;;;;;;;16.63;5.30;;;17.20;99.90;;;;;;5131531;28;20377;-85
2021/07/19 01:02:55;;;;;;;13.73;5.25;;;17.20;99.90;;;;;;5148791;28;20050;-85
2021/07/19 01:05:25;;;;;;;16.35;5.00;;;17.20;99.90;;;;;;5148058;28;20161;-85
2021/07/19 01:07:53;;;;;;;17.95;5.13;;;17.20;99.90;;;;;;5147536;28;20036;-86
2021/07/19 01:10:21;;;;;;;17.98;4.90;;;17.20;99.90;;;;;;5131323;28;20032;-86
2021/07/19 01:12:51;;;;;;;10.07;4.57;;;17.20;99.90;;;;;;5147146;28;20032;-85
2021/07/19 01:15:21;;;;;;;9.60;4.43;;;17.20;99.90;;;;;;5147968;28;20032;-85
2021/07/19 01:17:48;;;;;;;16.20;5.15;;;17.20;99.90;;;;;;5147526;28;20443;-85
2021/07/19 01:20:17;;;;;;;14.55;4.65;;;17.20;99.90;;;;;;5131054;28;20126;-86
2021/07/19 01:23:21;;;;;;;15.48;4.82;;;17.20;99.90;;;;;;5130703;28;20035;-85
2021/07/19 01:26:12;;;;;;;13.25;4.47;;;17.20;99.90;;;;;;5147588;28;20118;-85
2021/07/19 01:28:45;;;;;;;13.52;4.40;;;17.20;99.90;;;;;;5148652;28;20055;-85
2021/07/19 01:31:15;;;;;;;16.98;4.53;;;17.30;99.90;;;;;;5147796;28;20031;-85
2021/07/19 01:33:48;;;;;;;13.43;4.10;;;17.20;99.90;;;;;;5130923;28;20035;-86
2021/07/19 01:36:19;;;;;;;13.77;4.95;;;17.20;99.90;;;;;;5147892;28;20430;-86
2021/07/19 01:38:47;;;;;;;12.63;5.07;;;17.20;99.90;;;;;;5147442;28;20039;-85
2021/07/19 01:41:17;;;;;;;12.30;4.80;;;17.10;99.90;;;;;;5148103;28;20035;-86
2021/07/19 01:43:46;;;;;;;16.75;4.95;;;17.10;99.90;;;;;;5130866;28;20084;-85
2021/07/19 01:46:15;;;;;;;13.60;5.20;;;17.10;99.90;;;;;;5147594;28;20032;-86
2021/07/19 01:48:43;;;;;;;15.20;5.13;;;17.00;99.90;;;;;;5147823;28;20055;-85
2021/07/19 01:51:11;;;;;;;14.25;5.13;;;17.00;99.90;;;;;;5147060;28;20032;-85
2021/07/19 01:53:41;;;;;;;17.80;5.40;;;16.90;99.90;;;;;;5148452;28;20038;-85
2021/07/19 01:56:08;;;;;;;15.27;4.80;;;16.80;99.90;;;;;;5147291;28;20119;-86
2021/07/19 01:58:36;;;;;;;16.13;5.60;;;16.80;99.90;;;;;;5130784;28;20472;-86
2021/07/19 02:01:05;;;;;;;15.35;5.57;;;16.80;99.90;;;;;;5146871;28;20043;-86
2021/07/19 02:03:33;;;;;;;14.23;4.88;;;16.80;99.90;;;;;;5147126;28;20039;-86
2021/07/19 02:06:02;;;;;;;14.73;5.70;;;16.80;99.90;;;;;;5148339;28;20042;-85
2021/07/19 02:08:29;;;;;;;15.05;5.40;;;16.70;99.90;;;;;;5130793;28;20090;-85
2021/07/19 02:10:56;;;;;;;12.18;4.78;;;16.70;99.90;;;;;;5147153;28;20164;-85
2021/07/19 02:13:26;;;;;;;12.90;5.25;;;16.70;99.90;;;;;;5147661;28;20071;-86
2021/07/19 02:15:55;;;;;;;16.42;5.13;;;16.70;99.90;;;;;;5146858;28;20059;-85
2021/07/19 02:18:24;;;;;;;11.70;5.15;;;16.70;99.90;;;;;;5148447;28;20043;-85
2021/07/19 02:20:54;;;;;;;13.65;5.15;;;16.70;99.90;;;;;;5146973;28;20042;-86
2021/07/19 02:23:23;;;;;;;18.58;5.35;;;16.70;99.90;;;;;;5147498;28;20031;-85
2021/07/19 02:25:52;;;;;;;13.63;5.20;;;16.60;99.90;;;;;;5148942;28;20126;-84
2021/07/19 02:28:19;;;;;;;11.30;4.95;;;16.60;99.90;;;;;;5151985;28;20040;-85
2021/07/19 02:30:47;;;;;;;13.27;5.50;;;16.50;99.90;;;;;;5134293;28;20031;-85
2021/07/19 02:33:20;;;;;;;12.43;5.38;;;16.50;99.90;;;;;;5117104;28;20590;-85
2021/07/19 02:35:52;;;;;;;16.85;5.53;;;16.50;99.90;;;;;;5151232;28;20391;-86
2021/07/19 02:38:22;;;;;;;16.95;5.63;;;16.50;99.90;;;;;;5134410;28;20456;-86
2021/07/19 02:40:52;;;;;;;13.75;4.97;;;16.40;99.90;;;;;;5150622;28;20491;-85
2021/07/19 02:43:23;;;;;;;17.45;5.50;;;16.30;99.90;;;;;;5152159;28;20495;-85
2021/07/19 02:45:54;;;;;;;11.40;5.55;;;16.40;99.90;;;;;;5150950;28;20047;-85
2021/07/19 02:48:24;;;;;;;14.00;5.28;;;16.40;99.90;;;;;;5150792;28;20035;-85
2021/07/19 02:50:57;;;;;;;20.88;5.60;;;16.30;99.90;;;;;;5150821;28;20126;-85
2021/07/19 02:53:28;;;;;;;12.88;5.38;;;16.40;99.90;;;;;;5150735;28;20039;-85
2021/07/19 02:55:57;;;;;;;12.52;5.38;;;16.40;99.90;;;;;;5133997;28;20035;-85
2021/07/19 02:58:24;;;;;;;12.70;5.53;;;16.40;99.90;;;;;;5150197;28;20118;-85
2021/07/19 03:00:52;;;;;;;14.07;5.15;;;16.40;99.90;;;;;;5150502;28;20032;-85
2021/07/19 03:03:26;;;;;;;15.50;5.10;;;16.40;99.90;;;;;;5150338;28;20525;-85
2021/07/19 03:06:06;;;;;;;13.20;4.88;;;16.40;99.90;;;;;;5150371;28;20042;-85
2021/07/19 03:08:36;;;;;;;12.43;5.00;;;16.30;99.90;;;;;;5150430;28;20391;-85
2021/07/19 03:11:08;;;;;;;12.88;5.32;;;16.40;99.90;;;;;;5150831;27;20089;-85
2021/07/19 03:13:36;;;;;;;14.73;5.85;;;16.30;99.90;;;;;;5150342;28;20376;-85
2021/07/19 03:16:05;;;;;;;13.02;5.30;;;16.30;99.90;;;;;;5132691;28;20032;-85
2021/07/19 03:18:36;;;;;;;14.07;5.40;;;16.20;99.90;;;;;;5149880;28;20036;-86
2021/07/19 03:21:05;;;;;;;14.25;5.72;;;16.20;99.90;;;;;;5149191;28;20035;-85
2021/07/19 03:23:35;;;;;;;14.35;5.38;;;16.20;99.90;;;;;;5132167;28;20394;-84
2021/07/19 03:26:03;;;;;;;11.73;5.57;;;16.20;99.90;;;;;;5149620;28;20039;-85
2021/07/19 03:28:31;;;;;;;13.35;5.47;;;16.20;99.90;;;;;;5148593;28;20047;-85
2021/07/19 03:31:00;;;;;;;14.90;5.38;;;16.20;99.90;;;;;;5131911;28;20031;-85
2021/07/19 03:33:27;;;;;;;16.95;5.78;;;16.20;99.90;;;;;;5132041;28;20043;-85
2021/07/19 03:35:54;;;;;;;12.48;5.90;;;16.20;99.90;;;;;;5131546;28;20040;-86
2021/07/19 03:38:22;;;;;;;12.13;5.20;;;16.20;99.90;;;;;;5149503;28;20536;-86
2021/07/19 03:40:50;;;;;;;16.50;5.65;;;16.20;99.90;;;;;;5133319;28;20109;-86
2021/07/19 03:43:17;;;;;;;17.30;6.05;;;16.20;99.90;;;;;;5132730;28;20076;-86
2021/07/19 03:45:46;;;;;;;14.15;5.88;;;16.20;99.90;;;;;;5149761;28;20039;-85
2021/07/19 03:48:17;;;;;;;16.65;5.30;;;16.10;99.90;;;;;;5132411;28;20039;-86
2021/07/19 03:50:44;;;;;;;16.90;5.78;;;16.20;99.90;;;;;;5132914;28;20031;-86
2021/07/19 03:53:13;;;;;;;13.43;5.32;;;16.10;99.90;;;;;;5149973;28;20042;-86
2021/07/19 03:55:42;;;;;;;16.98;6.10;;;16.10;99.90;;;;;;5133081;28;20032;-86
2021/07/19 03:58:11;;;;;;;11.70;5.60;;;16.10;99.90;;;;;;5132556;28;20047;-85
2021/07/19 04:00:39;;;;;;;16.75;5.80;;;16.10;99.90;;;;;;5132462;28;20552;-85
2021/07/19 04:03:32;;;;;;;15.63;6.50;;;16.10;99.90;;;;;;5149030;28;20032;-85
2021/07/19 04:06:04;;;;;;;18.02;6.15;;;16.10;99.90;;;;;;5150266;28;20071;-86
2021/07/19 04:08:34;;;;;;;18.35;6.05;;;16.10;99.90;;;;;;5133954;28;20035;-85
2021/07/19 04:11:02;;;;;;;15.75;5.80;;;16.10;99.90;;;;;;5132269;28;20035;-85
2021/07/19 04:13:32;;;;;;;12.77;5.63;;;16.10;99.90;;;;;;5149609;28;20036;-86
2021/07/19 04:15:59;;;;;;;12.20;5.75;;;16.10;99.90;;;;;;5132781;28;20032;-86
2021/07/19 04:18:26;;;;;;;14.23;5.45;;;16.00;99.90;;;;;;5131751;28;20036;-86
2021/07/19 04:20:55;;;;;;;11.90;5.10;;;16.10;99.90;;;;;;5132253;28;20401;-86
2021/07/19 04:23:23;;;;;;;13.75;5.10;;;16.10;99.90;;;;;;5149743;28;20089;-86
2021/07/19 04:25:50;;;;;;;15.82;5.05;;;16.10;99.90;;;;;;5131536;28;20042;-85
2021/07/19 04:28:21;;;;;;;15.13;5.63;;;16.10;99.90;;;;;;5131035;28;20527;-85
2021/07/19 04:30:50;;;;;;;11.73;5.28;;;16.10;99.90;;;;;;5132283;28;20043;-86
2021/07/19 04:33:19;;;;;;;13.70;5.45;;;16.20;99.90;;;;;;5131724;28;20038;-85
2021/07/19 04:35:47;;;;;;;14.80;5.50;;;16.20;99.90;;;;;;5149639;28;20368;-86
2021/07/19 04:38:21;;;;;;;12.98;5.38;;;16.20;99.90;;;;;;5131706;28;20036;-86
2021/07/19 04:40:53;;;;;;;12.63;5.15;;;16.20;99.90;;;;;;5148911;28;20035;-87
2021/07/19 04:43:21;;;;;;;14.88;4.90;;;16.20;99.90;;;;;;5148543;28;20058;-86
2021/07/19 04:45:49;;;;;;;16.67;5.20;;;16.20;99.90;;;;;;5149033;28;20047;-86
2021/07/19 04:48:17;;;;;;;14.07;5.00;;;16.20;99.90;;;;;;5113658;28;20079;-86
2021/07/19 04:50:45;;;;;;;13.98;4.65;;;16.30;99.90;;;;;;5131783;28;20042;-87
2021/07/19 04:53:13;;;;;;;14.45;5.03;;;16.30;99.90;;;;;;5148254;28;20038;-86
2021/07/19 04:55:48;;;;;;;12.85;4.57;;;16.30;99.90;;;;;;5131840;28;20051;-87
2021/07/19 04:58:18;;;;;;;11.13;4.50;;;16.40;99.90;;;;;;5148222;28;20043;-85
2021/07/19 05:00:52;;;;;;;14.02;4.65;;;16.40;99.90;;;;;;5149798;28;20105;-86
2021/07/19 05:03:22;;;;;;;11.73;4.10;;;16.50;99.90;;;;;;5148113;28;20042;-86
2021/07/19 05:05:49;;;;;;;12.77;4.50;;;16.50;99.90;;;;;;5131740;28;20047;-86
2021/07/19 05:08:21;;;;;;;13.23;4.07;;;16.50;99.90;;;;;;5130950;28;20065;-85
2021/07/19 05:10:50;;;;;;;14.25;4.15;;;16.60;99.90;;;;;;5148652;28;20108;-86
2021/07/19 05:13:18;;;;;;;11.63;3.80;;;16.60;99.90;;;;;;5149041;28;20063;-85
2021/07/19 05:15:45;;;;;;;9.45;4.05;;;16.60;99.90;;;;;;5131405;28;20043;-86
2021/07/19 05:18:16;;;;;;;11.73;4.00;;;16.70;99.90;;;;;;5147947;28;20475;-85
2021/07/19 05:20:44;;;;;;;9.30;4.30;;;16.70;99.90;;;;;;5148027;28;20032;-85
2021/07/19 05:23:11;;;;;;;9.73;4.10;;;16.70;99.90;;;;;;5148052;28;20038;-85
2021/07/19 05:25:39;;;;;;;9.50;4.13;;;16.80;99.90;;;;;;5131277;28;20063;-86
2021/07/19 05:28:14;;;;;;;16.70;4.00;;;16.90;99.90;;;;;;5130821;28;20055;-86
2021/07/19 05:30:47;;;;;;;11.93;3.50;;;16.90;99.90;;;;;;5149253;28;20047;-86
2021/07/19 05:33:15;;;;;;;10.88;3.90;;;16.90;99.90;;;;;;5148033;28;20084;-86
2021/07/19 05:35:42;;;;;;;9.23;3.85;;;16.90;99.90;;;;;;5148295;28;20113;-86
2021/07/19 05:38:10;;;;;;;9.65;3.80;;;17.00;99.90;;;;;;5131071;28;20052;-86
2021/07/19 05:40:37;;;;;;;12.52;4.00;;;17.00;99.90;;;;;;5131070;28;20400;-86
2021/07/19 05:43:04;;;;;;;12.90;3.75;;;17.00;99.90;;;;;;5130717;28;20039;-86
2021/07/19 05:45:31;;;;;;;10.63;3.97;;;17.10;99.90;;;;;;5130212;28;20039;-87
2021/07/19 05:47:59;;;;;;;11.15;4.10;;;17.10;99.90;;;;;;5131110;28;20399;-87
2021/07/19 05:50:27;;;;;;;11.02;3.88;;;17.20;99.90;;;;;;5130366;28;20042;-86
2021/07/19 05:52:58;;;;;;;12.70;3.65;;;17.20;99.90;;;;;;5148056;28;20078;-86
2021/07/19 05:55:25;;;;;;;8.73;3.72;;;17.30;99.90;;;;;;5130698;28;20039;-87
2021/07/19 05:57:52;;;;;;;12.75;3.58;;;17.40;99.90;;;;;;5147899;28;20081;-86
2021/07/19 06:00:19;;;;;;;8.43;3.30;;;17.50;99.90;;;;;;5151172;28;20036;-87
2021/07/19 06:02:46;;;;;;;10.30;3.50;;;17.50;99.90;;;;;;5135449;28;20035;-86
2021/07/19 06:05:13;;;;;;;9.27;3.45;;;17.50;99.90;;;;;;5135046;28;20035;-85
2021/07/19 06:07:40;;;;;;;9.85;3.40;;;17.50;99.90;;;;;;5135027;28;20044;-86
2021/07/19 06:10:10;;;;;;;12.20;4.00;;;17.50;99.90;;;;;;5134989;28;20042;-86
2021/07/19 06:12:38;;;;;;;10.63;3.65;;;17.50;99.90;;;;;;5134580;28;20031;-85
2021/07/19 06:15:10;;;;;;;9.35;3.10;;;17.40;99.90;;;;;;5151956;28;20032;-85
2021/07/19 06:17:38;;;;;;;12.50;3.70;;;17.40;99.90;;;;;;5134534;28;20044;-85
2021/07/19 06:20:12;;;;;;;9.75;3.00;;;17.50;99.90;;;;;;5152055;28;20036;-86
2021/07/19 06:22:40;;;;;;;7.60;3.20;;;17.50;99.90;;;;;;5152187;28;20036;-85
2021/07/19 06:25:09;;;;;;;10.23;3.70;;;17.50;99.90;;;;;;5134466;28;20089;-86
2021/07/19 06:27:37;;;;;;;11.95;3.60;;;17.60;99.90;;;;;;5152185;28;20063;-86
2021/07/19 06:30:06;;;;;;;9.48;3.10;;;17.70;99.90;;;;;;5151842;28;20074;-86
2021/07/19 06:32:33;;;;;;;13.02;3.38;;;17.70;99.90;;;;;;5150412;28;20036;-85
2021/07/19 06:35:01;;;;;;;9.35;3.22;;;17.80;99.90;;;;;;5151323;28;20059;-86
2021/07/19 06:37:28;;;;;;;9.23;3.10;;;17.80;99.90;;;;;;5134189;28;20042;-85
2021/07/19 06:39:55;;;;;;;8.35;3.03;;;17.90;99.90;;;;;;5134532;28;20139;-86
2021/07/19 06:42:26;;;;;;;7.85;3.10;;;17.90;99.90;;;;;;5150948;28;20035;-85
2021/07/19 06:44:57;;;;;;;9.93;3.50;;;18.00;99.90;;;;;;5151036;28;20035;-86
2021/07/19 06:47:25;;;;;;;13.15;3.65;;;18.00;99.90;;;;;;5134136;28;20468;-85
2021/07/19 06:49:54;;;;;;;12.85;3.10;;;18.00;99.90;;;;;;5134395;28;20503;-86
2021/07/19 06:52:21;;;;;;;8.48;2.90;;;18.00;99.90;;;;;;5133936;28;20391;-86
2021/07/19 06:54:48;;;;;;;10.55;3.30;;;18.00;99.90;;;;;;5151030;28;20038;-85
2021/07/19 06:57:15;;;;;;;9.73;3.45;;;18.00;99.90;;;;;;5134005;28;20035;-86
2021/07/19 06:59:42;;;;;;;10.35;3.00;;;18.00;99.90;;;;;;5133597;28;20042;-86
2021/07/19 07:02:09;;;;;;;11.68;3.45;;;18.00;99.90;;;;;;5133791;28;20040;-86
2021/07/19 07:04:36;;;;;;;9.73;3.10;;;18.00;99.90;;;;;;5133535;28;20046;-86
2021/07/19 07:07:03;;;;;;;8.52;3.10;;;18.10;99.90;;;;;;5133748;28;20035;-86
2021/07/19 07:09:32;;;;;;;9.98;3.13;;;18.10;99.90;;;;;;5150472;28;20035;-85
2021/07/19 07:11:59;;;;;;;11.32;3.17;;;18.10;99.90;;;;;;5132907;28;20434;-86
2021/07/19 07:14:26;;;;;;;12.82;3.30;;;18.20;99.90;;;;;;5132692;28;20035;-85
2021/07/19 07:16:53;;;;;;;10.23;3.22;;;18.20;99.90;;;;;;5151552;28;20035;-85
2021/07/19 07:19:19;;;;;;;9.15;3.28;;;18.20;99.90;;;;;;5150701;28;20478;-85
2021/07/19 07:21:46;;;;;;;10.63;2.92;;;18.20;99.90;;;;;;5116534;28;20053;-86
2021/07/19 07:24:13;;;;;;;9.20;3.38;;;18.20;99.90;;;;;;5133575;28;20092;-85
2021/07/19 07:26:40;;;;;;;12.35;3.40;;;18.20;99.90;;;;;;5149967;28;20039;-85
2021/07/19 07:29:07;;;;;;;10.10;3.40;;;18.20;99.90;;;;;;5133270;28;20048;-86
2021/07/19 07:31:34;;;;;;;12.23;3.33;;;18.20;99.90;;;;;;5149427;28;20054;-85
2021/07/19 07:34:01;;;;;;;9.25;3.13;;;18.20;99.90;;;;;;5133382;28;20500;-86
2021/07/19 07:36:29;;;;;;;11.23;3.58;;;18.20;99.90;;;;;;5132931;28;20395;-85
2021/07/19 07:38:56;;;;;;;11.65;3.25;;;18.20;99.90;;;;;;5133321;28;20538;-85
2021/07/19 07:41:23;;;;;;;9.63;3.10;;;18.20;99.90;;;;;;5150200;28;20532;-86
2021/07/19 07:43:50;;;;;;;9.65;3.33;;;18.30;99.90;;;;;;5149619;28;20039;-86
2021/07/19 07:46:17;;;;;;;8.63;2.97;;;18.30;99.90;;;;;;5133152;28;20031;-86
2021/07/19 07:48:44;;;;;;;10.82;3.75;;;18.40;99.90;;;;;;5132639;28;20123;-86
2021/07/19 07:51:11;;;;;;;9.27;3.92;;;18.50;99.90;;;;;;5133270;28;20040;-86
2021/07/19 07:53:38;;;;;;;7.85;3.17;;;18.40;99.90;;;;;;5148806;28;20503;-86
2021/07/19 07:56:05;;;;;;;13.13;3.83;;;18.50;99.90;;;;;;5133164;28;20031;-86
2021/07/19 07:58:32;;;;;;;8.60;3.33;;;18.50;99.90;;;;;;5132637;28;20042;-88
2021/07/19 08:00:59;;;;;;;6.68;2.92;;;18.60;99.90;;;;;;5132957;28;20088;-86
2021/07/19 08:03:26;;;;;;;11.80;3.30;;;18.60;99.90;;;;;;5132537;28;20039;-87
2021/07/19 08:05:52;;;;;;;11.50;3.40;;;18.50;99.90;;;;;;5132185;28;20042;-86
2021/07/19 08:08:19;;;;;;;7.53;2.80;;;18.40;99.90;;;;;;5132742;28;20173;-86
2021/07/19 08:10:46;;;;;;;6.43;2.90;;;18.40;99.90;;;;;;5115618;28;20491;-86
2021/07/19 08:13:13;;;;;;;7.63;2.72;;;18.60;99.90;;;;;;5132897;28;20042;-85
2021/07/19 08:15:40;;;;;;;7.82;2.90;;;18.80;99.90;;;;;;5149184;28;20553;-85
2021/07/19 08:18:06;;;;;;;9.70;2.92;;;19.00;99.90;;;;;;5132335;28;20051;-86
2021/07/19 08:20:33;;;;;;;7.05;2.80;;;19.20;99.90;;;;;;5132038;28;20471;-85
2021/07/19 08:23:00;;;;;;;7.28;2.60;;;19.40;99.90;;;;;;5132558;28;20036;-86
2021/07/19 08:25:27;;;;;;;12.23;2.50;;;19.70;99.90;;;;;;5149243;28;20097;-85
2021/07/19 08:27:55;;;;;;;5.80;2.10;;;19.90;99.90;;;;;;5148395;28;20046;-85
2021/07/19 08:30:23;;;;;;;8.70;2.75;;;20.00;99.90;;;;;;5132435;28;20039;-85
2021/07/19 08:32:51;;;;;;;9.50;2.50;;;20.00;99.90;;;;;;5131059;28;20050;-85
2021/07/19 08:35:18;;;;;;;8.70;2.60;;;20.00;99.90;;;;;;5132033;28;20092;-85
2021/07/19 08:37:46;;;;;;;7.78;2.47;;;19.90;99.90;;;;;;5131649;28;20039;-85
2021/07/19 08:40:16;;;;;;;8.43;2.67;;;19.80;99.90;;;;;;5115179;28;20414;-85
2021/07/19 08:42:42;;;;;;;8.15;2.58;;;19.80;99.90;;;;;;5148577;28;20035;-85
2021/07/19 08:45:10;;;;;;;7.30;2.35;;;20.00;99.90;;;;;;5131696;28;20396;-86
2021/07/19 08:47:45;;;;;;;5.40;2.60;;;20.10;99.90;;;;;;5131594;28;20028;-85
2021/07/19 08:50:13;;;;;;;8.20;2.70;;;20.00;99.90;;;;;;5149003;28;20105;-85
2021/07/19 08:52:41;;;;;;;10.18;2.80;;;20.00;99.90;;;;;;5131751;28;20164;-85
2021/07/19 08:55:10;;;;;;;5.68;2.60;;;19.80;99.90;;;;;;5131805;28;20164;-85
2021/07/19 08:57:40;;;;;;;9.77;2.90;;;19.70;99.90;;;;;;5131458;28;20084;-86
2021/07/19 09:00:09;;;;;;;8.93;2.92;;;19.60;99.90;;;;;;5148948;28;20035;-85
2021/07/19 09:02:36;;;;;;;9.07;2.70;;;19.40;99.90;;;;;;5148327;28;20110;-85
2021/07/19 09:05:04;;;;;;;8.43;2.63;;;19.30;99.90;;;;;;5131653;28;20544;-85
2021/07/19 09:07:31;;;;;;;9.15;2.80;;;19.10;99.90;;;;;;5131510;28;20455;-85
2021/07/19 09:10:01;;;;;;;7.95;2.40;;;19.10;99.90;;;;;;5147954;28;20039;-86
2021/07/19 09:12:38;;;;;;;8.82;2.38;;;19.10;99.90;;;;;;5148682;28;20018;-85
2021/07/19 09:15:07;;;;;;;8.25;2.70;;;19.20;99.90;;;;;;5149518;28;20039;-85
2021/07/19 09:17:35;;;;;;;9.25;2.78;;;19.30;99.90;;;;;;5131533;28;20040;-85
2021/07/19 09:20:04;;;;;;;9.02;2.47;;;19.30;99.90;;;;;;5148364;28;20045;-86
2021/07/19 09:22:33;;;;;;;8.07;2.75;;;19.30;99.90;;;;;;5130903;28;20034;-85
2021/07/19 09:25:13;;;;;;;9.88;2.85;;;19.30;99.90;;;;;;5148591;28;20039;-85
2021/07/19 09:28:07;;;;;;;8.45;2.70;;;19.40;99.90;;;;;;5147081;28;20032;-87
2021/07/19 09:30:44;;;;;;;8.13;2.40;;;19.40;99.90;;;;;;5148353;28;20157;-86
2021/07/19 09:33:21;;;;;;;7.10;2.30;;;19.50;99.90;;;;;;5147619;28;20035;-83
2021/07/19 09:35:52;;;;;;;8.55;2.50;;;19.70;99.90;;;;;;5147635;28;20076;-82
2021/07/19 09:38:19;;;;;;;7.53;2.50;;;19.80;99.90;;;;;;5131086;28;20118;-82
2021/07/19 09:40:55;;;;;;;8.30;2.70;;;19.80;99.90;;;;;;5113285;28;20079;-83
2021/07/19 09:43:24;;;;;;;7.60;2.65;;;19.80;99.90;;;;;;5147404;28;20119;-83
2021/07/19 09:46:03;;;;;;;9.13;3.05;;;19.70;99.90;;;;;;5130671;28;20047;-83
2021/07/19 09:48:30;;;;;;;9.23;2.80;;;19.80;99.90;;;;;;5130384;28;20048;-82
2021/07/19 09:50:58;;;;;;;8.00;2.63;;;19.80;99.90;;;;;;5130127;28;20042;-83
2021/07/19 09:53:41;;;;;;;8.82;2.47;;;20.00;99.90;;;;;;5147391;28;20042;-82
2021/07/19 09:56:19;;;;;;;9.98;2.58;;;20.20;99.90;;;;;;5147447;28;20123;-82
2021/07/19 09:58:48;;;;;;;10.90;3.03;;;20.20;99.90;;;;;;5147135;28;20035;-82
2021/07/19 10:01:34;;;;;;;8.60;2.85;;;20.10;99.90;;;;;;5147658;28;20059;-82
2021/07/19 10:04:09;;;;;;;6.60;2.40;;;20.00;99.90;;;;;;5130864;28;20046;-83
2021/07/19 10:06:38;;;;;;;11.90;2.60;;;20.00;99.90;;;;;;5147511;28;20442;-83
2021/07/19 10:09:11;;;;;;;9.98;2.78;;;19.80;99.90;;;;;;5130086;28;20040;-82
2021/07/19 10:11:41;;;;;;;8.93;3.17;;;19.70;99.90;;;;;;5147532;28;20042;-82
2021/07/19 10:14:08;;;;;;;11.85;2.80;;;19.60;99.90;;;;;;5130769;28;20040;-83
2021/07/19 10:16:39;;;;;;;8.88;2.88;;;19.60;99.90;;;;;;5147603;28;20035;-82
2021/07/19 10:19:06;;;;;;;7.72;2.58;;;19.70;99.90;;;;;;5146763;28;20467;-83
2021/07/19 10:21:34;;;;;;;8.88;2.90;;;19.70;99.90;;;;;;5147341;28;20114;-82
2021/07/19 10:24:04;;;;;;;8.75;2.63;;;19.80;99.90;;;;;;5113394;28;20043;-82
2021/07/19 10:26:31;;;;;;;8.60;2.78;;;19.80;99.90;;;;;;5147385;28;20028;-83
2021/07/19 10:28:58;;;;;;;8.15;2.90;;;19.80;99.90;;;;;;5129908;28;20060;-82
2021/07/19 10:31:27;;;;;;;8.73;2.45;;;19.70;99.90;;;;;;5130243;28;20031;-83
2021/07/19 10:33:57;;;;;;;7.80;2.80;;;19.80;99.90;;;;;;5129932;28;20115;-83
2021/07/19 10:36:29;;;;;;;8.07;3.22;;;19.70;99.90;;;;;;5147207;28;20122;-83
2021/07/19 10:39:01;;;;;;;6.53;2.67;;;19.60;99.90;;;;;;5146852;28;20108;-83
2021/07/19 10:41:28;;;;;;;10.88;3.10;;;19.50;99.90;;;;;;5147196;28;20036;-83
2021/07/19 10:44:07;;;;;;;8.88;2.70;;;19.40;99.90;;;;;;5129854;28;20492;-83
2021/07/19 10:46:36;;;;;;;10.50;2.90;;;19.30;99.90;;;;;;5148822;28;20396;-84
2021/07/19 10:49:08;;;;;;;7.72;2.75;;;19.10;99.90;;;;;;5133833;28;20050;-83
2021/07/19 10:51:45;;;;;;;11.98;3.00;;;19.10;99.90;;;;;;5150909;28;20046;-83
2021/07/19 10:54:20;;;;;;;9.95;3.10;;;19.00;99.90;;;;;;5133732;28;20089;-83
2021/07/19 10:56:51;;;;;;;;;;;19.00;99.90;;;;;;5151147;28;20040;-83
2021/07/19 10:59:26;;;;;;;8.73;2.72;;;19.00;99.90;;;;;;5117257;28;19915;-83
2021/07/19 11:01:55;;;;;;;10.35;3.20;;;19.00;99.90;;;;;;5150255;28;20042;-83
2021/07/19 11:04:23;;;;;;;8.55;3.10;;;19.00;99.90;;;;;;5150264;28;20046;-83
2021/07/19 11:06:58;;;;;;;10.10;3.50;;;19.10;99.90;;;;;;5133056;28;20055;-84
2021/07/19 11:09:39;;;;;;;9.38;3.42;;;19.20;99.90;;;;;;5135009;28;20100;-83
2021/07/19 11:12:11;;;;;;;10.07;3.20;;;19.20;99.90;;;;;;5151106;28;20058;-83
2021/07/19 11:14:50;;;;;;;13.23;3.80;;;19.30;99.90;;;;;;5150206;28;20488;-83
2021/07/19 11:17:19;;;;;;;9.38;3.53;;;19.40;99.90;;;;;;5150652;28;20046;-83
2021/07/19 11:19:49;;;;;;;10.13;4.00;;;19.40;99.90;;;;;;5150241;28;20027;-82
2021/07/19 11:22:15;;;;;;;8.13;3.72;;;19.40;99.90;;;;;;5150295;28;20063;-86
2021/07/19 11:24:47;;;;;;;6.82;3.53;;;19.40;99.90;;;;;;5150678;28;20066;-86
2021/07/19 11:27:22;;;;;;;9.02;3.90;;;19.40;99.90;;;;;;5133104;28;20381;-86
2021/07/19 11:29:59;;;;;;;8.93;4.10;;;19.20;99.90;;;;;;5150358;28;20047;-85
2021/07/19 11:32:30;;;;;;;10.07;4.47;;;19.10;99.90;;;;;;5150250;28;20126;-85
2021/07/19 11:35:19;;;;;;;9.82;4.90;;;19.10;99.90;;;;;;5133091;28;20055;-86
2021/07/19 11:37:49;;;;;;;12.68;6.00;;;19.00;99.90;;;;;;5151613;28;20074;-86
2021/07/19 11:40:29;;;;;;;13.75;5.80;;;18.90;99.90;;;;;;5150204;28;20119;-87
2021/07/19 11:43:18;;;;;;;10.25;6.05;;;18.90;99.90;;;;;;5151383;28;20046;-87
2021/07/19 11:45:50;;;;;;;11.98;5.90;;;18.90;99.90;;;;;;5150424;28;20050;-85
2021/07/19 11:48:23;;;;;;;13.85;5.68;;;18.80;99.90;;;;;;5149600;28;20031;-85
2021/07/19 11:50:56;;;;;;;11.18;6.40;;;18.80;99.90;;;;;;5150071;28;20213;-86
2021/07/19 11:53:22;;;;;;;11.85;6.53;;;18.80;99.90;;;;;;5133210;28;20487;-87
2021/07/19 11:55:50;;;;;;;11.93;6.60;;;18.80;99.90;;;;;;5150027;28;20031;-86
2021/07/19 11:58:17;;;;;;;14.88;6.68;;;18.90;99.90;;;;;;5132463;28;20046;-86
2021/07/19 12:00:45;;;;;;;11.18;6.82;;;18.90;99.90;;;;;;5150125;28;20035;-86
2021/07/19 12:03:16;;;;;;;13.35;7.25;;;18.80;99.90;;;;;;5133067;28;20430;-86
2021/07/19 12:05:51;;;;;;;13.40;7.57;;;18.90;99.90;;;;;;5150494;28;20067;-85
2021/07/19 12:08:28;;;;;;;;;;;19.00;99.90;;;;;;5150138;28;20115;-87
2021/07/19 12:11:01;;;;;;;14.30;8.18;;;19.00;99.90;;;;;;5150820;28;19923;-85
2021/07/19 12:13:34;;;;;;;12.45;8.40;;;19.20;99.90;;;;;;5149839;28;20040;-86
2021/07/19 12:16:01;;;;;;;12.35;8.02;;;19.40;99.90;;;;;;5149320;28;20081;-86
2021/07/19 12:18:36;;;;;;;13.75;8.43;;;19.70;99.90;;;;;;5132625;28;20404;-86
2021/07/19 12:21:09;;;;;;;14.13;8.77;;;19.90;99.90;;;;;;5132564;28;20066;-85
2021/07/19 12:23:42;;;;;;;12.20;8.30;;;20.00;99.90;;;;;;5150069;28;20048;-85
2021/07/19 12:26:15;;;;;;;12.07;8.02;;;20.10;99.90;;;;;;5151491;28;20115;-87
2021/07/19 12:28:56;;;;;;;11.02;8.25;;;20.20;99.90;;;;;;5150218;28;20405;-86
2021/07/19 12:31:43;;;;;;;12.57;8.50;;;20.50;99.90;;;;;;5150919;28;20031;-85
2021/07/19 12:34:15;;;;;;;11.55;9.00;;;20.70;99.90;;;;;;5148051;28;20047;-86
2021/07/19 12:36:51;;;;;;;12.38;8.52;;;20.90;99.90;;;;;;5149607;28;20118;-86
2021/07/19 12:39:23;;;;;;;15.18;8.63;;;20.90;99.90;;;;;;5148918;28;20442;-86
2021/07/19 12:41:51;;;;;;;12.85;8.27;;;20.70;99.90;;;;;;5149021;28;20040;-85
2021/07/19 12:44:25;;;;;;;13.20;8.23;;;20.40;99.90;;;;;;5131427;28;20036;-85
2021/07/19 12:46:53;;;;;;;11.23;8.32;;;20.30;99.90;;;;;;5148992;28;20503;-85
2021/07/19 12:49:40;;;;;;;12.63;8.60;;;20.20;99.90;;;;;;5148364;28;20036;-85
2021/07/19 12:52:13;;;;;;;12.88;8.20;;;20.30;99.90;;;;;;5131736;28;20488;-85
2021/07/19 12:54:41;;;;;;;12.68;8.68;;;20.50;99.90;;;;;;5149093;28;20047;-86